Sky Acres, Vermont
Current Conditions -  °F | °C
As of 5:51 AM on Wednesday 26 Nov 2014 (Local Time) from KMPV Reporting Station
Clear Clear  
Wind Chill: 32°   Ceiling: Unl
Heat Index: 32°   Visibility: 10mi
Dew Point: 21°   Wind: 3mph
Humidity: 64%   Direction: 20°NNE
Pressure: 30.21"   Gusts: NA
Location:  44.0671°N, 72.4216°W
Report Text: KMPV 261051Z AUTO 02003KT 10SM CLR 00/M06 A3021 RMK AO2 SLP245 T00001061
Loading
Personal Weather Stations






























Interactive Weather Map New forecast layout! Learn more

10-Day Weather Forecast

Advertisements
Track Severe Weather on mobile